Time;durP1;ratioP1;P1;durP2;ratioP2;P2;SDS_P1;SDS_P2;PMS_P1;PMS_P2;Temp;Humidity;BMP_temperature;BMP_pressure;BME280_temperature;BME280_humidity;BME280_pressure;Samples;Min_cycle;Max_cycle;Signal;HPM_P1;HPM_P2
2022/03/30 00:00:30;;;;;;;17.20;7.72;;;4.30;99.90;;;;;;5052129;28;20037;-92
2022/03/30 00:03:06;;;;;;;14.15;5.57;;;3.40;99.90;;;;;;5026442;28;20044;-88
2022/03/30 00:05:36;;;;;;;11.85;6.38;;;3.50;99.90;;;;;;5055276;28;20040;-88
2022/03/30 00:08:07;;;;;;;9.32;5.68;;;4.30;99.90;;;;;;5065867;28;20075;-88
2022/03/30 00:10:42;;;;;;;13.02;6.18;;;4.30;99.90;;;;;;5083118;28;20051;-88
2022/03/30 00:13:20;;;;;;;6.55;5.88;;;4.20;99.90;;;;;;5060170;28;20119;-88
2022/03/30 00:15:55;;;;;;;12.07;6.80;;;4.30;99.90;;;;;;5074388;28;20076;-89
2022/03/30 00:18:23;;;;;;;12.20;6.88;;;4.20;99.90;;;;;;5055829;28;20430;-91
2022/03/30 00:20:54;;;;;;;10.85;7.53;;;4.20;99.90;;;;;;5068965;28;20055;-88
2022/03/30 00:23:25;;;;;;;14.38;7.03;;;4.30;99.90;;;;;;5059624;28;20045;-88
2022/03/30 00:25:57;;;;;;;13.82;7.00;;;4.40;99.90;;;;;;5073051;28;20513;-88
2022/03/30 00:28:42;;;;;;;12.40;6.70;;;4.20;99.90;;;;;;5054889;28;20525;-91
2022/03/30 00:31:17;;;;;;;10.15;5.90;;;4.30;99.90;;;;;;5048648;28;20048;-88
2022/03/30 00:33:50;;;;;;;10.18;6.30;;;4.30;99.90;;;;;;5068201;28;20459;-88
2022/03/30 00:36:19;;;;;;;9.00;5.03;;;4.40;99.90;;;;;;5048577;28;20075;-88
2022/03/30 00:38:52;;;;;;;9.20;5.65;;;4.30;99.90;;;;;;5086600;28;20061;-88
2022/03/30 00:41:21;;;;;;;15.32;7.22;;;4.20;99.90;;;;;;5060114;28;20128;-88
2022/03/30 00:43:49;;;;;;;12.75;5.95;;;4.30;99.90;;;;;;5071138;28;20048;-88
2022/03/30 00:46:19;;;;;;;19.63;7.03;;;4.30;99.90;;;;;;5068832;28;20094;-89
2022/03/30 00:48:45;;;;;;;17.30;6.38;;;4.20;99.90;;;;;;5058960;28;20546;-88
2022/03/30 00:51:13;;;;;;;12.83;7.33;;;4.20;99.90;;;;;;5034249;28;20128;-88
2022/03/30 00:53:39;;;;;;;12.27;5.93;;;4.10;99.90;;;;;;5075389;28;20538;-88
2022/03/30 00:56:27;;;;;;;17.57;7.40;;;3.60;99.90;;;;;;5055732;28;20037;-88
2022/03/30 00:58:56;;;;;;;9.07;5.85;;;4.10;99.90;;;;;;5054787;28;20056;-88
2022/03/30 01:01:30;;;;;;;10.45;6.32;;;4.10;99.90;;;;;;5057674;28;20044;-88
2022/03/30 01:03:59;;;;;;;14.90;6.47;;;4.10;99.90;;;;;;5067423;28;20101;-89
2022/03/30 01:06:28;;;;;;;9.20;6.05;;;3.20;99.90;;;;;;5057896;28;20093;-88
2022/03/30 01:08:54;;;;;;;16.40;6.22;;;4.10;99.90;;;;;;5062906;28;20510;-88
2022/03/30 01:11:26;;;;;;;12.43;6.83;;;4.10;99.90;;;;;;5066105;28;20045;-88
2022/03/30 01:13:54;;;;;;;12.60;7.20;;;4.30;99.90;;;;;;5042617;28;20044;-88
2022/03/30 01:16:23;;;;;;;15.65;6.47;;;4.20;99.90;;;;;;5056273;28;20056;-88
2022/03/30 01:19:11;;;;;;;12.88;6.43;;;4.20;99.90;;;;;;5060387;28;20073;-88
2022/03/30 01:22:00;;;;;;;;;;;4.30;99.90;;;;;;5050657;28;20047;-88
2022/03/30 01:24:27;;;;;;;19.65;7.25;;;4.30;99.90;;;;;;5063409;28;19927;-88
2022/03/30 01:26:58;;;;;;;17.13;7.45;;;4.40;99.90;;;;;;5066073;28;20044;-88
2022/03/30 01:32:34;;;;;;;12.30;6.38;;;3.60;99.90;;;;;;5060131;28;20053;-88
2022/03/30 01:35:07;;;;;;;17.70;7.43;;;4.30;99.90;;;;;;5037968;28;20103;-89
2022/03/30 01:37:45;;;;;;;12.38;7.28;;;4.30;99.90;;;;;;5048929;28;20110;-92
2022/03/30 01:40:24;;;;;;;;;;;;;;;;;;;;;
2022/03/30 01:43:03;;;;;;;;;;;;;;;;;;;;;
2022/03/30 01:45:32;;;;;;;14.43;6.85;;;4.50;99.90;;;;;;5071425;28;20136;-88
2022/03/30 01:48:03;;;;;;;19.10;7.43;;;4.40;99.90;;;;;;5053675;28;20515;-88
2022/03/30 01:50:41;;;;;;;10.52;6.60;;;4.10;99.90;;;;;;5073390;28;20481;-88
2022/03/30 01:53:10;;;;;;;12.93;6.07;;;4.60;99.90;;;;;;5064808;28;20048;-88
2022/03/30 01:55:38;;;;;;;9.65;6.07;;;4.60;99.90;;;;;;5074196;28;20110;-90
2022/03/30 01:58:31;;;;;;;19.52;7.68;;;5.30;99.90;;;;;;5038590;28;20110;-89
2022/03/30 02:01:19;;;;;;;8.75;6.90;;;4.60;99.90;;;;;;5061748;28;20154;-89
2022/03/30 02:03:47;;;;;;;;;;;4.50;99.90;;;;;;5068829;28;20052;-88
2022/03/30 02:06:29;;;;;;;11.52;6.43;;;4.60;99.90;;;;;;5082714;28;19925;-88
2022/03/30 02:09:06;;;;;;;9.77;6.38;;;4.60;99.90;;;;;;5056622;28;20048;-88
2022/03/30 02:11:46;;;;;;;19.13;8.55;;;4.60;99.90;;;;;;5053687;28;20045;-88
2022/03/30 02:14:12;;;;;;;11.68;7.75;;;4.60;99.90;;;;;;5040385;28;20115;-88
2022/03/30 02:16:49;;;;;;;11.25;6.93;;;4.60;99.90;;;;;;5070959;28;20087;-93
2022/03/30 02:19:20;;;;;;;16.92;7.05;;;4.60;99.90;;;;;;5060442;28;20059;-88
2022/03/30 02:21:56;;;;;;;14.88;8.07;;;4.20;99.90;;;;;;5039314;28;20114;-88
2022/03/30 02:24:42;;;;;;;;;;;;;;;;;;;;;
2022/03/30 02:27:15;;;;;;;15.93;8.05;;;3.90;99.90;;;;;;5073919;28;20135;-88
2022/03/30 02:29:44;;;;;;;14.52;7.30;;;4.60;99.90;;;;;;5061913;28;20060;-88
2022/03/30 02:32:23;;;;;;;12.75;8.20;;;3.70;99.90;;;;;;5069690;28;20116;-89
2022/03/30 02:34:54;;;;;;;12.30;7.55;;;4.70;99.90;;;;;;5021544;28;20119;-88
2022/03/30 02:37:23;;;;;;;15.13;7.90;;;4.70;99.90;;;;;;5024350;28;20067;-88
2022/03/30 02:39:52;;;;;;;14.00;8.02;;;4.70;99.90;;;;;;5050780;28;20074;-88
2022/03/30 02:42:25;;;;;;;14.93;6.93;;;4.70;99.90;;;;;;5066151;28;20450;-88
2022/03/30 02:44:58;;;;;;;14.32;8.20;;;4.80;99.90;;;;;;5057866;28;20045;-88
2022/03/30 02:50:14;;;;;;;16.63;6.53;;;4.70;99.90;;;;;;5081958;28;20055;-88
2022/03/30 02:53:00;;;;;;;17.37;8.03;;;4.80;99.90;;;;;;5068014;28;20040;-88
2022/03/30 02:55:33;;;;;;;13.35;7.07;;;4.70;99.90;;;;;;5073827;28;20048;-88
2022/03/30 02:58:17;;;;;;;;;;;;;;;;;;;;;
2022/03/30 03:01:01;;;;;;;;;;;;;;;;;;;;;
2022/03/30 03:03:34;;;;;;;17.08;7.57;;;4.70;99.90;;;;;;5084111;28;20047;-88
2022/03/30 03:06:00;;;;;;;17.35;8.10;;;4.80;99.90;;;;;;5060406;28;20048;-88
2022/03/30 03:08:37;;;;;;;15.47;8.17;;;4.70;99.90;;;;;;5053105;28;20052;-88
2022/03/30 03:11:12;;;;;;;14.05;7.03;;;5.10;99.90;;;;;;5061196;28;20076;-88
2022/03/30 03:13:44;;;;;;;10.60;6.32;;;4.80;99.90;;;;;;5066059;28;20054;-88
2022/03/30 03:16:42;;;;;;;18.25;8.25;;;4.80;99.90;;;;;;5045841;28;20075;-89
2022/03/30 03:19:16;;;;;;;14.93;6.03;;;5.00;99.90;;;;;;5062367;28;20090;-88
2022/03/30 03:21:47;;;;;;;7.53;5.80;;;5.60;99.90;;;;;;5054208;28;20132;-88
2022/03/30 03:24:16;;;;;;;11.23;6.13;;;4.80;99.90;;;;;;5038452;28;20433;-88
2022/03/30 03:26:47;;;;;;;10.82;6.05;;;4.70;99.90;;;;;;5056446;28;20489;-91
2022/03/30 03:29:16;;;;;;;10.85;7.63;;;4.50;99.90;;;;;;5050585;28;20135;-88
2022/03/30 03:31:48;;;;;;;11.40;6.80;;;4.80;99.90;;;;;;5057348;28;20063;-88
2022/03/30 03:34:14;;;;;;;19.27;7.38;;;4.80;99.90;;;;;;5068647;28;20086;-88
2022/03/30 03:36:42;;;;;;;13.33;6.30;;;4.90;99.90;;;;;;5087578;28;20044;-88
2022/03/30 03:39:10;;;;;;;12.75;7.30;;;4.80;99.90;;;;;;5045969;28;20084;-88
2022/03/30 03:41:45;;;;;;;;;;;;;;;;;;;;;
2022/03/30 03:44:29;;;;;;;10.43;6.25;;;4.80;99.90;;;;;;5076891;28;20048;-88
2022/03/30 03:47:07;;;;;;;13.38;7.35;;;6.10;99.90;;;;;;5065427;28;20106;-88
2022/03/30 03:49:33;;;;;;;12.82;7.55;;;4.90;99.90;;;;;;5055340;28;20052;-88
2022/03/30 03:52:11;;;;;;;8.15;5.68;;;4.10;99.90;;;;;;5078700;28;20075;-88
2022/03/30 03:54:44;;;;;;;;;;;4.90;99.90;;;;;;5056426;28;20049;-88
2022/03/30 03:57:12;;;;;;;17.95;6.55;;;4.90;99.90;;;;;;5075506;28;20006;-88
2022/03/30 03:59:41;;;;;;;16.25;7.35;;;4.90;99.90;;;;;;5073267;28;20058;-88
2022/03/30 04:02:23;;;;;;;11.15;7.43;;;5.00;99.90;;;;;;5083399;28;20491;-87
2022/03/30 04:04:49;;;;;;;16.10;7.68;;;4.90;99.90;;;;;;5050052;28;20059;-88
2022/03/30 04:07:23;;;;;;;18.65;7.43;;;4.00;99.90;;;;;;5083623;28;20040;-88
2022/03/30 04:10:01;;;;;;;;;;;;;;;;;;;;;
2022/03/30 04:12:32;;;;;;;15.27;6.57;;;6.30;99.90;;;;;;5072876;28;20135;-88
2022/03/30 04:15:01;;;;;;;12.38;7.10;;;5.00;99.90;;;;;;5081871;28;20036;-88
2022/03/30 04:17:32;;;;;;;21.60;6.82;;;5.00;99.90;;;;;;5062837;28;20114;-88
2022/03/30 04:20:08;;;;;;;10.13;6.85;;;5.00;99.90;;;;;;5063952;28;20044;-88
2022/03/30 04:22:35;;;;;;;13.00;7.35;;;5.10;99.90;;;;;;5068783;28;20044;-87
2022/03/30 04:25:01;;;;;;;12.00;6.28;;;5.10;99.90;;;;;;5074713;28;20136;-88
2022/03/30 04:27:43;;;;;;;10.90;6.88;;;5.10;99.90;;;;;;5071147;28;20044;-87
2022/03/30 04:30:15;;;;;;;12.00;6.35;;;5.10;99.90;;;;;;5038752;28;20041;-88
2022/03/30 04:32:41;;;;;;;10.70;5.72;;;5.10;99.90;;;;;;5076217;28;20047;-87
2022/03/30 04:35:11;;;;;;;9.18;5.78;;;5.10;99.90;;;;;;5080940;28;20467;-88
2022/03/30 04:37:41;;;;;;;8.27;4.47;;;6.10;99.90;;;;;;5091505;28;20050;-87
2022/03/30 04:40:15;;;;;;;9.50;5.60;;;5.20;99.90;;;;;;5038777;28;20105;-88
2022/03/30 04:42:52;;;;;;;;;;;;;;;;;;;;;
2022/03/30 04:45:27;;;;;;;5.68;4.53;;;4.30;99.90;;;;;;5071568;28;20056;-87
2022/03/30 04:48:05;;;;;;;10.10;4.60;;;5.10;99.90;;;;;;5059851;28;20056;-88
2022/03/30 04:50:37;;;;;;;6.28;4.38;;;5.20;99.90;;;;;;5059803;28;20175;-88
2022/03/30 04:53:07;;;;;;;5.88;2.60;;;5.70;99.90;;;;;;5039930;28;20052;-88
2022/03/30 04:56:06;;;;;;;;;;;;;;;;;;;;;
2022/03/30 04:58:38;;;;;;;3.65;1.75;;;5.20;99.90;;;;;;5063843;28;20220;-88
2022/03/30 05:01:06;;;;;;;2.17;1.52;;;5.20;99.90;;;;;;5069632;28;20044;-88
2022/03/30 05:03:32;;;;;;;3.03;1.58;;;5.20;99.90;;;;;;5067584;28;20067;-87
2022/03/30 05:06:06;;;;;;;2.23;1.97;;;5.10;99.90;;;;;;5068062;28;20076;-92
2022/03/30 05:08:41;;;;;;;0.80;0.80;;;6.40;99.90;;;;;;5078517;28;20082;-87
2022/03/30 05:11:12;;;;;;;2.30;1.17;;;5.20;99.90;;;;;;5051973;28;20049;-88
2022/03/30 05:13:38;;;;;;;1.25;0.57;;;5.20;99.90;;;;;;5032229;28;20052;-88
2022/03/30 05:16:06;;;;;;;1.17;0.67;;;5.10;99.90;;;;;;5034351;28;20075;-88
2022/03/30 05:18:32;;;;;;;0.43;0.40;;;5.00;99.90;;;;;;5035335;28;20048;-88
2022/03/30 05:21:03;;;;;;;0.73;0.63;;;5.30;99.90;;;;;;5054751;28;20044;-87
2022/03/30 05:23:40;;;;;;;0.10;0.10;;;5.10;99.90;;;;;;5056007;28;20087;-87
2022/03/30 05:26:14;;;;;;;2.53;0.47;;;5.10;99.90;;;;;;5047653;28;20490;-88
2022/03/30 05:28:42;;;;;;;0.70;0.38;;;5.10;99.90;;;;;;5080442;28;20064;-88
2022/03/30 05:31:09;;;;;;;0.60;0.47;;;5.10;99.90;;;;;;5098392;28;20064;-87
2022/03/30 05:33:40;;;;;;;0.68;0.68;;;5.30;99.90;;;;;;5076967;28;20487;-87
2022/03/30 05:36:17;;;;;;;0.32;0.32;;;5.00;99.90;;;;;;5069708;28;20053;-88
2022/03/30 05:38:50;;;;;;;0.88;0.85;;;5.00;99.90;;;;;;5081138;28;20047;-88
2022/03/30 05:41:27;;;;;;;1.35;0.50;;;4.90;99.90;;;;;;5052872;28;20037;-87
2022/03/30 05:44:04;;;;;;;0.90;0.63;;;4.30;99.90;;;;;;5075522;28;20114;-88
2022/03/30 05:46:41;;;;;;;1.80;0.85;;;6.10;99.90;;;;;;5060112;28;20119;-87
2022/03/30 05:49:07;;;;;;;1.40;0.60;;;6.10;99.90;;;;;;5076012;28;20041;-88
2022/03/30 05:51:35;;;;;;;0.87;0.67;;;6.00;99.90;;;;;;5047631;28;20045;-88
2022/03/30 05:54:11;;;;;;;1.20;0.82;;;4.70;99.90;;;;;;5086971;28;20049;-87
2022/03/30 05:59:40;;;;;;;0.88;0.88;;;4.80;99.90;;;;;;5061155;28;20449;-88
2022/03/30 06:02:17;;;;;;;0.57;0.57;;;4.80;99.90;;;;;;5065866;28;20067;-89
2022/03/30 06:04:45;;;;;;;2.22;1.42;;;4.70;99.90;;;;;;5087069;28;20079;-85
2022/03/30 06:07:41;;;;;;;0.40;0.40;;;4.70;99.90;;;;;;5042867;28;20056;-89
2022/03/30 06:10:08;;;;;;;0.63;0.63;;;4.70;99.90;;;;;;5054379;28;20056;-89
2022/03/30 06:12:34;;;;;;;0.75;0.75;;;4.70;99.90;;;;;;5063184;28;20040;-88
2022/03/30 06:15:00;;;;;;;0.35;0.35;;;4.70;99.90;;;;;;5075896;28;20101;-89
2022/03/30 06:17:29;;;;;;;1.40;1.30;;;4.80;99.90;;;;;;5066860;28;20072;-87
2022/03/30 06:19:57;;;;;;;0.70;0.70;;;4.80;99.90;;;;;;5073683;28;20055;-87
2022/03/30 06:22:25;;;;;;;1.13;1.02;;;4.80;99.90;;;;;;5092958;28;20079;-87
2022/03/30 06:27:49;;;;;;;0.65;0.65;;;5.00;99.90;;;;;;5066960;28;20520;-87
2022/03/30 06:30:18;;;;;;;0.88;0.50;;;5.10;99.90;;;;;;5056023;28;20049;-89
2022/03/30 06:32:49;;;;;;;1.15;0.98;;;4.50;99.90;;;;;;5058196;28;20048;-84
2022/03/30 06:35:19;;;;;;;2.22;0.63;;;5.20;99.90;;;;;;5086641;28;20040;-82
2022/03/30 06:38:02;;;;;;;2.75;0.70;;;5.20;99.90;;;;;;5056959;28;20059;-89
2022/03/30 06:40:28;;;;;;;0.93;0.65;;;5.30;99.90;;;;;;5036698;28;20072;-86
2022/03/30 06:42:54;;;;;;;0.70;0.70;;;5.60;99.90;;;;;;5045699;28;20087;-87
2022/03/30 06:45:23;;;;;;;0.47;0.47;;;5.60;99.90;;;;;;5070014;28;20525;-87
2022/03/30 06:47:49;;;;;;;0.80;0.73;;;5.60;99.90;;;;;;5061828;28;20093;-84
2022/03/30 06:50:17;;;;;;;0.87;0.57;;;5.70;99.90;;;;;;5046276;28;20047;-87
2022/03/30 06:52:43;;;;;;;0.75;0.75;;;5.80;99.90;;;;;;5054890;28;20053;-88
2022/03/30 06:55:12;;;;;;;0.30;0.30;;;4.80;99.90;;;;;;5073562;28;20048;-88
2022/03/30 06:57:38;;;;;;;0.45;0.45;;;5.80;99.90;;;;;;5047029;28;20090;-84
2022/03/30 07:00:05;;;;;;;0.50;0.50;;;5.90;99.90;;;;;;5058317;28;20080;-80
2022/03/30 07:02:31;;;;;;;0.60;0.50;;;6.00;99.90;;;;;;5075639;28;20048;-85
2022/03/30 07:05:00;;;;;;;0.55;0.55;;;6.10;99.90;;;;;;5040640;28;20403;-87
2022/03/30 07:10:15;;;;;;;3.75;0.85;;;6.70;99.90;;;;;;5070059;28;20059;-91
2022/03/30 07:12:44;;;;;;;0.80;0.60;;;6.30;99.90;;;;;;5044970;28;20417;-83
2022/03/30 07:15:10;;;;;;;0.57;0.52;;;6.40;99.90;;;;;;5052669;28;20057;-86
2022/03/30 07:17:43;;;;;;;1.27;0.80;;;6.50;99.90;;;;;;5036822;28;20106;-90
2022/03/30 07:20:12;;;;;;;1.15;0.80;;;6.60;99.90;;;;;;5074125;28;20128;-88
2022/03/30 07:22:38;;;;;;;0.75;0.60;;;6.60;99.90;;;;;;5071800;28;20506;-87
2022/03/30 07:28:54;;;;;;;3.22;0.85;;;6.00;99.90;;;;;;5042393;28;20052;-88
2022/03/30 07:31:25;;;;;;;1.30;0.98;;;6.70;99.90;;;;;;5034070;28;20456;-89
2022/03/30 07:34:18;;;;;;;;;;;;;;;;;;;;;
2022/03/30 07:36:59;;;;;;;0.85;0.77;;;6.70;99.90;;;;;;5053377;28;20119;-89
2022/03/30 07:39:32;;;;;;;1.02;0.90;;;6.70;99.90;;;;;;5055441;28;20044;-88
2022/03/30 07:42:03;;;;;;;1.15;1.05;;;6.50;99.90;;;;;;5054259;28;20044;-87
2022/03/30 07:44:36;;;;;;;1.52;1.30;;;6.60;99.90;;;;;;5051994;28;20048;-89
2022/03/30 07:47:19;;;;;;;1.33;1.23;;;7.00;99.90;;;;;;5074410;28;20137;-88
2022/03/30 07:50:13;;;;;;;1.30;1.20;;;5.80;99.90;;;;;;5090618;28;20048;-88
2022/03/30 07:52:50;;;;;;;;;;;;;;;;;;;;;
2022/03/30 07:55:28;;;;;;;2.28;1.20;;;6.50;99.90;;;;;;5069020;28;20103;-88
2022/03/30 07:58:07;;;;;;;;;;;;;;;;;;;;;
2022/03/30 08:00:36;;;;;;;2.90;1.77;;;6.60;99.90;;;;;;5063660;28;20036;-87
2022/03/30 08:03:03;;;;;;;2.40;2.07;;;6.20;99.90;;;;;;5054119;28;20052;-85
2022/03/30 08:05:33;;;;;;;3.78;2.25;;;6.10;99.90;;;;;;5057151;28;20455;-86
2022/03/30 08:08:02;;;;;;;3.25;2.38;;;6.60;99.90;;;;;;5058294;28;20049;-86
2022/03/30 08:10:29;;;;;;;3.00;1.95;;;6.10;99.90;;;;;;5068931;28;20056;-85
2022/03/30 08:12:55;;;;;;;2.65;1.98;;;5.90;99.90;;;;;;5056056;28;20050;-85
2022/03/30 08:15:24;;;;;;;5.50;2.30;;;6.10;99.90;;;;;;5057917;28;20048;-91
2022/03/30 08:18:14;;;;;;;2.88;1.45;;;6.30;99.90;;;;;;5064591;28;20040;-90
2022/03/30 08:24:00;;;;;;;1.92;1.50;;;6.20;99.90;;;;;;5083088;28;20052;-91
2022/03/30 08:26:39;;;;;;;1.95;1.60;;;6.90;99.90;;;;;;5075814;28;20049;-86
2022/03/30 08:29:06;;;;;;;1.33;1.17;;;7.30;99.90;;;;;;5038939;28;20090;-85
2022/03/30 08:31:47;;;;;;;;;;;;;;;;;;;;;
2022/03/30 08:34:52;;;;;;;0.85;0.85;;;7.40;99.90;;;;;;5071983;28;20045;-85
2022/03/30 08:37:55;;;;;;;2.30;1.20;;;7.40;99.90;;;;;;5070822;28;20048;-85
2022/03/30 08:40:37;;;;;;;1.55;1.30;;;7.00;99.90;;;;;;5071131;28;20052;-85
2022/03/30 08:43:11;;;;;;;2.55;1.77;;;7.50;99.90;;;;;;5055268;28;20048;-85
2022/03/30 08:45:39;;;;;;;3.80;2.00;;;7.50;99.90;;;;;;5054412;28;20486;-85
2022/03/30 08:48:05;;;;;;;5.28;2.33;;;7.40;99.90;;;;;;5054795;28;20050;-85
2022/03/30 08:50:34;;;;;;;2.38;1.40;;;7.30;99.90;;;;;;5054178;28;20487;-86
2022/03/30 08:53:30;;;;;;;1.63;1.25;;;7.30;99.90;;;;;;5071722;28;20040;-85
2022/03/30 08:56:01;;;;;;;1.65;1.20;;;7.30;99.90;;;;;;5054999;28;20129;-85
2022/03/30 08:58:35;;;;;;;1.02;0.93;;;6.40;99.90;;;;;;5054471;28;20407;-88
2022/03/30 09:01:45;;;;;;;1.88;1.08;;;7.40;99.90;;;;;;5039130;28;20047;-85
2022/03/30 09:04:27;;;;;;;;;;;;;;;;;;;;;
2022/03/30 09:06:57;;;;;;;1.85;1.00;;;7.60;99.90;;;;;;5057541;28;20131;-85
2022/03/30 09:09:41;;;;;;;2.92;0.90;;;7.70;99.90;;;;;;5054554;28;20079;-85
2022/03/30 09:12:35;;;;;;;1.48;1.20;;;7.60;99.90;;;;;;5054904;28;20087;-85
2022/03/30 09:15:21;;;;;;;5.25;1.10;;;7.30;99.90;;;;;;5054369;28;20048;-85
2022/03/30 09:18:00;;;;;;;4.03;1.38;;;7.30;99.90;;;;;;5039994;28;20044;-85
2022/03/30 09:20:32;;;;;;;1.33;1.25;;;7.10;99.90;;;;;;5054976;28;20110;-85
2022/03/30 09:23:01;;;;;;;0.82;0.70;;;6.90;99.90;;;;;;5054810;28;20136;-85
2022/03/30 09:25:34;;;;;;;0.70;0.70;;;6.70;99.90;;;;;;5071312;28;20045;-85
2022/03/30 09:28:03;;;;;;;1.33;0.85;;;6.50;99.90;;;;;;5071550;28;20048;-85
2022/03/30 09:30:42;;;;;;;0.90;0.73;;;5.70;99.90;;;;;;5055855;28;20079;-85
2022/03/30 09:33:11;;;;;;;1.17;1.08;;;6.50;99.90;;;;;;5071061;28;20044;-85
2022/03/30 09:35:38;;;;;;;1.55;0.70;;;6.60;99.90;;;;;;5054085;28;20048;-86
2022/03/30 09:38:08;;;;;;;0.82;0.68;;;6.60;99.90;;;;;;5054501;28;20114;-85
2022/03/30 09:41:04;;;;;;;3.60;1.27;;;6.90;99.90;;;;;;5053790;28;20044;-88
2022/03/30 09:43:41;;;;;;;3.13;0.82;;;7.10;99.90;;;;;;5026402;28;20135;-85
2022/03/30 09:46:24;;;;;;;3.83;0.70;;;7.10;99.90;;;;;;5085141;28;20055;-85
2022/03/30 09:49:30;;;;;;;1.13;0.88;;;7.00;99.90;;;;;;5084433;28;20056;-85
2022/03/30 09:52:03;;;;;;;0.50;0.50;;;7.30;99.90;;;;;;5050408;28;20049;-85
2022/03/30 09:54:38;;;;;;;0.50;0.50;;;7.40;99.90;;;;;;5068596;28;20049;-84
2022/03/30 09:57:32;;;;;;;0.68;0.68;;;7.70;99.90;;;;;;5051520;28;20053;-85
2022/03/30 10:00:14;;;;;;;1.15;0.82;;;8.00;99.90;;;;;;5043569;28;20053;-86
2022/03/30 10:03:02;;;;;;;2.60;0.85;;;8.20;99.90;;;;;;5050446;28;20088;-85
2022/03/30 10:05:31;;;;;;;1.33;1.25;;;8.30;99.90;;;;;;5050953;28;20166;-85
2022/03/30 10:08:09;;;;;;;;;;;;;;;;;;;;;
2022/03/30 10:10:45;;;;;;;1.92;0.93;;;7.80;99.90;;;;;;5055517;28;20060;-89
2022/03/30 10:13:26;;;;;;;;;;;;;;;;;;;;;
2022/03/30 10:16:02;;;;;;;1.30;0.82;;;9.20;99.90;;;;;;5073708;28;20045;-86
2022/03/30 10:18:33;;;;;;;1.30;0.75;;;9.40;99.90;;;;;;5057835;28;20048;-86
2022/03/30 10:21:15;;;;;;;1.65;0.75;;;9.60;99.90;;;;;;5057901;28;20036;-86
2022/03/30 10:23:56;;;;;;;1.85;1.17;;;9.70;99.90;;;;;;5073880;28;20070;-86
2022/03/30 10:26:58;;;;;;;4.20;1.30;;;9.40;99.90;;;;;;5074442;28;20049;-86
2022/03/30 10:29:29;;;;;;;1.35;0.80;;;8.20;99.90;;;;;;5057968;28;20044;-86
2022/03/30 10:32:13;;;;;;;0.63;0.63;;;8.80;99.90;;;;;;5073247;28;20054;-86
2022/03/30 10:35:06;;;;;;;0.93;0.90;;;8.50;99.90;;;;;;5073810;28;20045;-91
2022/03/30 10:37:44;;;;;;;0.73;0.73;;;8.30;99.90;;;;;;5074086;28;20546;-86
2022/03/30 10:40:24;;;;;;;0.82;0.80;;;8.20;99.90;;;;;;5057411;28;20479;-86
2022/03/30 10:42:54;;;;;;;1.10;0.70;;;7.50;99.90;;;;;;5056485;28;20045;-86
2022/03/30 10:45:31;;;;;;;2.30;0.80;;;7.90;99.90;;;;;;5056751;28;20048;-86
2022/03/30 10:48:25;;;;;;;1.70;0.68;;;7.80;99.90;;;;;;5057172;28;20131;-86
2022/03/30 10:51:05;;;;;;;2.28;0.90;;;7.80;99.90;;;;;;5057064;28;20041;-86
2022/03/30 10:53:32;;;;;;;0.60;0.60;;;7.80;99.90;;;;;;5057017;28;20487;-86
2022/03/30 10:56:25;;;;;;;2.42;0.80;;;7.80;99.90;;;;;;5056617;28;20368;-86
2022/03/30 10:58:58;;;;;;;0.77;0.77;;;7.90;99.90;;;;;;5052289;28;20084;-86
2022/03/30 11:01:32;;;;;;;0.52;0.52;;;8.20;99.90;;;;;;5057327;28;20064;-86
2022/03/30 11:04:17;;;;;;;0.70;0.60;;;7.60;99.90;;;;;;5073122;28;20102;-85
2022/03/30 11:07:19;;;;;;;2.38;1.10;;;8.40;99.90;;;;;;5073188;28;20049;-87
2022/03/30 11:10:17;;;;;;;0.82;0.70;;;7.70;99.90;;;;;;5058673;28;20398;-87
2022/03/30 11:13:05;;;;;;;1.25;0.70;;;8.70;99.90;;;;;;5056365;28;20052;-91
2022/03/30 11:15:59;;;;;;;1.85;0.70;;;8.80;99.90;;;;;;5056047;28;20044;-86
2022/03/30 11:18:31;;;;;;;2.05;0.80;;;8.90;99.90;;;;;;5072868;28;20127;-86
2022/03/30 11:21:14;;;;;;;0.60;0.60;;;8.30;99.90;;;;;;5072610;28;20087;-86
2022/03/30 11:23:53;;;;;;;0.50;0.50;;;9.00;99.90;;;;;;5056572;28;20139;-86
2022/03/30 11:26:20;;;;;;;1.95;0.80;;;9.00;99.90;;;;;;5072955;28;20044;-86
2022/03/30 11:28:48;;;;;;;1.48;0.90;;;8.90;99.90;;;;;;5056133;28;20102;-90
2022/03/30 11:31:23;;;;;;;0.90;0.77;;;8.90;99.90;;;;;;5056201;28;20040;-86
2022/03/30 11:34:36;;;;;;;1.50;0.93;;;8.00;99.90;;;;;;5055847;28;20040;-87
2022/03/30 11:37:09;;;;;;;0.95;0.70;;;8.90;99.90;;;;;;5039857;28;20044;-86
2022/03/30 11:39:38;;;;;;;0.50;0.50;;;8.80;99.90;;;;;;5056191;28;20045;-86
2022/03/30 11:42:09;;;;;;;0.70;0.70;;;8.70;99.90;;;;;;5072111;28;20489;-87
2022/03/30 11:47:43;;;;;;;0.93;0.93;;;8.60;99.90;;;;;;5049910;28;20056;-87
2022/03/30 11:50:16;;;;;;;1.30;1.20;;;8.40;99.90;;;;;;5055985;28;20075;-86
2022/03/30 11:53:05;;;;;;;;;;;;;;;;;;;;;
2022/03/30 11:55:53;;;;;;;1.13;1.00;;;8.20;99.90;;;;;;5072279;28;20517;-86
2022/03/30 11:58:49;;;;;;;1.33;0.90;;;8.20;99.90;;;;;;5055966;28;20102;-86
2022/03/30 12:01:21;;;;;;;0.90;0.75;;;8.20;99.90;;;;;;5055208;28;20301;-86
2022/03/30 12:03:54;;;;;;;0.82;0.82;;;8.10;99.90;;;;;;5055818;28;20484;-85
2022/03/30 12:06:32;;;;;;;1.75;1.65;;;7.20;99.90;;;;;;5055864;28;20053;-85
2022/03/30 12:09:07;;;;;;;2.08;0.63;;;7.50;99.90;;;;;;5040731;28;20049;-86
2022/03/30 12:11:37;;;;;;;3.50;1.02;;;8.00;99.90;;;;;;5054886;28;20056;-86
2022/03/30 12:14:11;;;;;;;0.77;0.77;;;8.00;99.90;;;;;;5054721;28;20110;-86
2022/03/30 12:16:38;;;;;;;1.50;1.40;;;8.00;99.90;;;;;;5055498;28;20052;-86
2022/03/30 12:19:13;;;;;;;3.88;0.70;;;7.50;99.90;;;;;;5054903;28;20138;-86
2022/03/30 12:21:44;;;;;;;0.60;0.60;;;7.90;99.90;;;;;;5055461;28;20040;-86
2022/03/30 12:24:16;;;;;;;1.13;1.05;;;7.80;99.90;;;;;;5054758;28;20044;-86
2022/03/30 12:27:15;;;;;;;1.92;1.52;;;7.80;99.90;;;;;;5055960;28;20048;-86
2022/03/30 12:29:44;;;;;;;1.02;0.70;;;7.00;99.90;;;;;;5054827;28;20525;-87
2022/03/30 12:32:15;;;;;;;0.50;0.50;;;7.90;99.90;;;;;;5054259;28;20227;-86
2022/03/30 12:34:46;;;;;;;2.03;1.00;;;8.00;99.90;;;;;;5055124;28;20049;-87
2022/03/30 12:37:21;;;;;;;0.65;0.60;;;8.10;99.90;;;;;;5071439;28;20044;-87
2022/03/30 12:39:50;;;;;;;0.63;0.52;;;8.20;99.90;;;;;;5055223;28;20052;-87
2022/03/30 12:42:29;;;;;;;1.13;0.93;;;8.30;99.90;;;;;;5065978;28;20047;-87
2022/03/30 12:45:12;;;;;;;;;;;;;;;;;;;;;
2022/03/30 12:47:40;;;;;;;1.73;0.77;;;8.30;99.90;;;;;;5071665;28;20123;-86
2022/03/30 12:50:13;;;;;;;1.70;0.80;;;8.30;99.90;;;;;;5054586;28;20044;-87
2022/03/30 12:52:44;;;;;;;4.93;1.20;;;8.10;99.90;;;;;;5071748;28;20102;-86
2022/03/30 12:55:26;;;;;;;1.23;1.13;;;8.00;99.90;;;;;;5054566;28;20276;-87
2022/03/30 12:58:24;;;;;;;3.65;0.85;;;8.00;99.90;;;;;;5071733;28;20064;-87
2022/03/30 13:00:57;;;;;;;2.17;0.98;;;7.90;99.90;;;;;;5055285;28;20131;-86
2022/03/30 13:03:37;;;;;;;3.53;1.35;;;7.90;99.90;;;;;;5055291;28;20411;-86
2022/03/30 13:06:19;;;;;;;1.52;1.27;;;7.90;99.90;;;;;;5037763;28;20056;-87
2022/03/30 13:09:11;;;;;;;1.30;1.00;;;7.60;99.90;;;;;;5055164;28;20114;-87
2022/03/30 13:11:49;;;;;;;3.50;1.00;;;8.20;99.90;;;;;;5053723;28;20053;-86
2022/03/30 13:14:24;;;;;;;0.80;0.70;;;8.00;99.90;;;;;;5054145;28;20580;-87
2022/03/30 13:17:09;;;;;;;1.58;0.70;;;8.10;99.90;;;;;;5054877;28;20063;-86
2022/03/30 13:19:43;;;;;;;2.42;0.70;;;8.20;99.90;;;;;;5054828;28;20510;-86
2022/03/30 13:22:12;;;;;;;1.83;0.93;;;7.80;99.90;;;;;;5053978;28;20045;-87
2022/03/30 13:24:51;;;;;;;1.08;0.63;;;8.60;99.90;;;;;;5054571;28;20193;-86
2022/03/30 13:27:24;;;;;;;2.75;0.85;;;8.70;99.90;;;;;;5054399;28;20101;-87
2022/03/30 13:29:52;;;;;;;1.27;0.77;;;8.70;99.90;;;;;;5038091;28;20048;-87
2022/03/30 13:32:21;;;;;;;1.48;0.88;;;8.90;99.90;;;;;;5054092;28;20123;-87
2022/03/30 13:34:57;;;;;;;1.63;0.90;;;9.10;99.90;;;;;;5054764;28;20080;-86
2022/03/30 13:37:30;;;;;;;2.35;0.80;;;8.70;99.90;;;;;;5070673;28;20044;-87
2022/03/30 13:40:10;;;;;;;2.75;1.23;;;9.60;99.90;;;;;;5054215;28;20048;-87
2022/03/30 13:42:36;;;;;;;1.17;0.70;;;10.30;99.90;;;;;;5038479;28;20044;-88
2022/03/30 13:45:20;;;;;;;;;;;;;;;;;;;;;
2022/03/30 13:47:59;;;;;;;0.70;0.55;;;10.50;99.90;;;;;;5074975;28;20083;-87
2022/03/30 13:50:28;;;;;;;1.25;0.40;;;11.10;99.90;;;;;;5057878;28;20074;-87
2022/03/30 13:52:54;;;;;;;1.85;0.65;;;10.00;99.90;;;;;;5058231;28;20052;-87
2022/03/30 13:55:42;;;;;;;1.57;0.87;;;9.90;99.90;;;;;;5057758;28;20099;-87
2022/03/30 13:58:14;;;;;;;2.92;0.63;;;9.90;98.60;;;;;;5074806;28;20094;-87
2022/03/30 14:00:45;;;;;;;0.95;0.80;;;9.80;99.50;;;;;;5058044;28;20098;-87
2022/03/30 14:03:22;;;;;;;1.30;0.68;;;9.80;99.30;;;;;;5057404;28;20524;-87
2022/03/30 14:05:53;;;;;;;3.22;1.00;;;9.70;98.80;;;;;;5074656;28;20115;-87
2022/03/30 14:08:22;;;;;;;1.15;0.85;;;9.60;99.20;;;;;;5056948;28;20040;-87
2022/03/30 14:10:58;;;;;;;1.90;0.70;;;9.60;98.60;;;;;;5057350;28;20484;-87
2022/03/30 14:13:25;;;;;;;0.57;0.55;;;9.30;97.90;;;;;;5057308;28;20083;-87
2022/03/30 14:16:03;;;;;;;2.75;0.70;;;9.20;98.50;;;;;;5057364;28;20049;-87
2022/03/30 14:18:29;;;;;;;1.50;0.90;;;9.00;98.20;;;;;;5057024;28;20557;-87
2022/03/30 14:21:01;;;;;;;1.73;0.80;;;8.90;98.10;;;;;;5041226;28;20041;-87